x

South Hecate Strait (46185) Wave Buoy

7:00am - Sun 24th May 2015 All times are PDT. -7 hours from GMT.

  • Sig Wave height 3.6ft
  • Peak Period 5s
  • Wind
    20mph, 25mph gusts
  • Sea Temp 52°f
  • Air Temp 50°f
  • Sea Pressure 1022.8mb
  • South Hecate Strait
  • South Hecate Strait

More Historic Weather Station data

Upgrade to MSW Pro to gain access to the past 30 days of data for over 8000 Wavebouys and Weather Stations around the globe.

Join Pro

Comparision Forecast

View Surf forecast
   
Sun 05/24 7:00am 3.5ft 5s 20 25 mph 1022.8mb 52f 50f
6:00am 3.5ft 5s 20 25 mph 1022.8mb 52f 50f
5:00am 4ft 5s 20 27 mph 1022.5mb 52f 50f
4:00am 4ft 5s 20 25 mph 1022.6mb 52f 51f
3:00am 3.5ft 4s 22 25 mph 1022.7mb 52f 50f
2:00am 2.5ft 4s 20 25 mph 1023.1mb 52f 50f
1:00am 2.5ft 17s 16 20 mph 1023.2mb 52f 51f
12:00am 2ft 17s 16 18 mph 1023.1mb 52f 51f
Sat 05/23 11:00pm 1.6ft 14s 13 16 mph 1023.3mb 52f 51f
9:00pm 1.6ft 12s 13 18 mph 1022.9mb 52f 51f
8:00pm 1.6ft 14s 13 16 mph 1022.6mb 52f 52f
7:00pm 1.6ft 17s 11 13 mph 1022.6mb 52f 51f
6:00pm 2ft 14s 9 11 mph 1022.8mb 53f 51f
5:00pm 2ft 9s 11 13 mph 1023mb 52f 52f
4:00pm 2.5ft 10s 11 13 mph 1023.1mb 52f 51f
3:00pm 2.5ft 13s 11 13 mph 1023.2mb 52f 51f
2:00pm 2.5ft 12s 13 16 mph 1023.1mb 52f 51f
1:00pm 2.5ft 14s 13 16 mph 1022.8mb 52f 50f
12:00pm 2.5ft 14s 4
mph
1022.6mb 52f 50f
11:00am 2ft 13s 11 13 mph 1022.2mb 52f 50f
10:00am 2ft 14s 11 13 mph 1022mb 52f 50f
9:00am 2ft 14s 9 11 mph 1021.5mb 52f 50f
8:00am 2ft 14s 9 11 mph 1021mb 52f 49f
7:00am 2.5ft 5s 9 11 mph 1020.7mb 52f 49f
6:00am 2.5ft 5s 11 13 mph 1020.3mb 52f 49f
5:00am 2.5ft 5s 9 16 mph 1019.7mb 52f 49f
4:00am 3ft 5s 11 16 mph 1019.2mb 52f 50f
3:00am 2.5ft 6s 13 18 mph 1018.8mb 52f 49f
2:00am 2.5ft 10s 9 11 mph 1018.9mb 52f 49f
1:00am 2.5ft 10s 11 13 mph 1018.7mb 52f 49f
12:00am 2.5ft 5s 9 13 mph 1018.5mb 52f 49f
Fri 05/22 11:00pm 2.5ft 5s 11 13 mph 1018.5mb 52f 49f
10:00pm 2.5ft 14s 13 18 mph 1018mb 52f 51f
9:00pm 2.5ft 5s 13 16 mph 1017.2mb 52f 51f
8:00pm 3ft 5s 13 18 mph 1016.8mb 52f 51f
7:00pm 3.5ft 5s 13 16 mph 1016.8mb 52f 51f
6:00pm 3.5ft 6s 11 16 mph 1017mb 52f 51f
5:00pm 4ft 5s 13 18 mph 1017.1mb 52f 50f
4:00pm 4ft 6s 13 16 mph 1017.1mb 52f 51f
3:00pm 4.5ft 5s  -  mph 1017mb 52f 51f
2:00pm 4.5ft 6s 16 18 mph 1017mb 52f 51f
1:00pm 4.5ft 6s 16 18 mph 1017mb 52f 51f
12:00pm 4.5ft 6s 18 20 mph 1016.9mb 52f 51f
11:00am 5ft 6s 20 25 mph 1016.5mb 52f 50f
10:00am 5ft 6s 22 27 mph 1016.3mb 52f 50f
9:00am 5ft 6s 22 27 mph 1016mb 52f 50f
8:00am 5ft 6s 20 25 mph 1015.8mb 52f 49f
6:00am 5.5ft 6s 25 31 mph 1014.8mb 52f 49f
5:00am 6ft 6s 22 27 mph 1014.6mb 52f 50f
4:00am 6ft 6s 22 27 mph 1014.6mb 52f 50f
3:00am 6ft 6s 22 29 mph 1014.6mb 52f 50f
2:00am 6ft 6s 22 29 mph 1014.7mb 52f 50f
1:00am 5ft 6s 22 29 mph 1014.4mb 52f 50f
12:00am 4.5ft 6s 20 25 mph 1014.6mb 52f 51f
Thu 05/21 11:00pm 4ft 6s 18 22 mph 1014.6mb 52f 50f
10:00pm 4ft 6s 18 22 mph 1014.3mb 52f 51f
9:00pm 4.5ft 6s 18 22 mph 1014.2mb 52f 52f
8:00pm 5ft 6s 18 22 mph 1013.9mb 52f 52f
7:00pm 5ft 6s 20 25 mph 1013.8mb 52f 52f
6:00pm 6ft 6s 20 22 mph 1014mb 52f 52f
5:00pm 5.5ft 6s 20 25 mph 1014.3mb 52f 51f
4:00pm 6ft 6s 22 27 mph 1014.6mb 52f 51f
3:00pm 6ft 6s 22 25 mph 1014.9mb 52f 51f
2:00pm 6ft 6s 22 27 mph 1015.2mb 52f 51f
1:00pm 5.5ft 6s 22 27 mph 1015.4mb 52f 51f
12:00pm 5ft 6s 25 29 mph 1015.5mb 52f 50f
11:00am 5ft 6s 22 27 mph 1015.5mb 52f 50f
10:00am 5.5ft 6s 22 29 mph 1015.7mb 52f 50f
9:00am 6ft 6s 22 27 mph 1015.6mb 52f 49f
8:00am 6.5ft 6s 22 27 mph 1015.4mb 52f 49f
6:00am 6.5ft 6s 25 29 mph 1015.1mb 52f 49f
5:00am 6.5ft 6s 25 31 mph 1015.1mb 52f 49f
4:00am 6ft 6s 25 31 mph 1015.1mb 52f 49f
3:00am 5ft 6s 22 31 mph 1015.1mb 53f 50f
2:00am 5ft 5s 25 29 mph 1015.2mb 53f 50f
1:00am 4.5ft 6s 22 29 mph 1015.3mb 53f 49f
12:00am 4.5ft 5s 22 27 mph 1015.6mb 53f 49f
Wed 05/20 11:00pm 4.5ft 6s 22 27 mph 1015.9mb 53f 49f
10:00pm 4.5ft 5s 20 25 mph 1015.9mb 53f 50f
9:00pm 4.5ft 5s 22 27 mph 1015.9mb 53f 50f
8:00pm 4.5ft 5s 20 25 mph 1016mb 53f 50f
7:00pm 4.5ft 5s 22 25 mph 1016.2mb 53f 50f
6:00pm 4.5ft 6s 20 22 mph 1016.7mb 53f 50f
5:00pm 4ft 5s 20 22 mph 1017.1mb 53f 50f
4:00pm 4ft 6s 18 22 mph 1017.6mb 53f 51f